createdAt,value
2023-03-13T00:01:27.874Z,1.95
2023-03-13T00:03:55.549Z,2.08
2023-03-13T00:06:26.256Z,1.98
2023-03-13T00:08:54.577Z,2.20
2023-03-13T00:11:21.755Z,2.00
2023-03-13T00:13:48.718Z,1.83
2023-03-13T00:16:17.202Z,1.80
2023-03-13T00:18:50.620Z,1.80
2023-03-13T00:21:21.300Z,1.92
2023-03-13T00:23:49.176Z,1.60
2023-03-13T00:26:20.905Z,1.52
2023-03-13T00:28:48.805Z,1.70
2023-03-13T00:31:31.632Z,1.58
2023-03-13T00:34:02.338Z,1.60
2023-03-13T00:36:33.500Z,1.50
2023-03-13T00:39:05.529Z,1.50
2023-03-13T00:41:37.127Z,1.50
2023-03-13T00:44:05.355Z,1.65
2023-03-13T00:46:32.827Z,1.60
2023-03-13T00:48:59.784Z,1.70
2023-03-13T00:51:28.721Z,1.30
2023-03-13T00:54:00.256Z,1.30
2023-03-13T00:56:28.679Z,1.30
2023-03-13T00:58:55.648Z,1.30
2023-03-13T01:01:27.127Z,1.33
2023-03-13T01:04:08.320Z,1.23
2023-03-13T01:06:40.691Z,1.20
2023-03-13T01:09:10.323Z,1.40
2023-03-13T01:11:41.817Z,1.38
2023-03-13T01:14:18.981Z,1.40
2023-03-13T01:16:47.289Z,1.30
2023-03-13T01:19:16.660Z,1.13
2023-03-13T01:21:46.843Z,1.20
2023-03-13T01:24:14.133Z,1.30
2023-03-13T01:26:41.374Z,1.40
2023-03-13T01:29:08.679Z,1.35
2023-03-13T01:31:37.150Z,1.20
2023-03-13T01:34:08.196Z,1.23
2023-03-13T01:36:37.755Z,1.50
2023-03-13T01:39:06.378Z,1.45
2023-03-13T01:41:33.810Z,1.52
2023-03-13T01:44:00.978Z,1.40
2023-03-13T01:46:36.682Z,1.30
2023-03-13T01:49:34.924Z,1.40
2023-03-13T01:52:28.695Z,1.38
2023-03-13T01:55:17.624Z,1.63
2023-03-13T01:57:54.845Z,1.38
2023-03-13T02:00:29.596Z,1.48
2023-03-13T02:03:04.144Z,1.30
2023-03-13T02:05:35.943Z,1.42
2023-03-13T02:08:14.653Z,1.67
2023-03-13T02:11:03.724Z,1.55
2023-03-13T02:13:31.100Z,1.55
2023-03-13T02:15:59.029Z,1.45
2023-03-13T02:18:26.858Z,1.58
2023-03-13T02:21:08.205Z,1.40
2023-03-13T02:23:50.835Z,1.60
2023-03-13T02:26:18.250Z,1.30
2023-03-13T02:28:45.656Z,1.15
2023-03-13T02:31:14.814Z,1.33
2023-03-13T02:33:44.710Z,1.40
2023-03-13T02:36:17.132Z,1.20
2023-03-13T02:38:56.291Z,1.30
2023-03-13T02:41:26.363Z,1.30
2023-03-13T02:43:55.580Z,1.30
2023-03-13T02:46:22.774Z,1.15
2023-03-13T02:48:56.877Z,1.30
2023-03-13T02:51:36.915Z,0.95
2023-03-13T02:54:11.936Z,1.10
2023-03-13T02:56:43.006Z,1.15
2023-03-13T02:59:11.529Z,0.90
2023-03-13T03:01:42.332Z,0.98
2023-03-13T03:04:09.687Z,1.10
2023-03-13T03:06:37.134Z,1.10
2023-03-13T03:09:05.509Z,1.02
2023-03-13T03:11:35.615Z,1.02
2023-03-13T03:14:09.140Z,1.15
2023-03-13T03:16:41.124Z,1.00
2023-03-13T03:19:10.908Z,1.00
2023-03-13T03:21:38.246Z,1.10
2023-03-13T03:24:06.144Z,1.25
2023-03-13T03:26:33.655Z,1.13
2023-03-13T03:29:01.271Z,1.25
2023-03-13T03:31:28.368Z,1.20
2023-03-13T03:33:57.777Z,1.35
2023-03-13T03:36:25.166Z,1.20
2023-03-13T03:38:52.986Z,1.48
2023-03-13T03:41:24.651Z,1.30
2023-03-13T03:43:54.523Z,1.35
2023-03-13T03:46:25.176Z,1.60
2023-03-13T03:48:52.396Z,1.55
2023-03-13T03:51:19.368Z,1.70
2023-03-13T03:53:47.967Z,1.48
2023-03-13T03:56:15.052Z,1.45
2023-03-13T04:01:35.207Z,1.58
2023-03-13T04:04:04.178Z,1.65
2023-03-13T04:06:31.387Z,1.60
2023-03-13T04:08:59.108Z,1.80
2023-03-13T04:11:28.917Z,1.55
2023-03-13T04:13:57.864Z,1.58
2023-03-13T04:16:25.578Z,1.60
2023-03-13T04:18:54.484Z,1.65
2023-03-13T04:21:22.063Z,1.55
2023-03-13T04:24:09.792Z,1.50
2023-03-13T04:26:39.252Z,1.70
2023-03-13T04:29:06.794Z,1.85
2023-03-13T04:31:47.254Z,1.60
2023-03-13T04:34:20.366Z,1.70
2023-03-13T04:37:17.140Z,1.67
2023-03-13T04:40:03.181Z,1.90
2023-03-13T04:42:42.005Z,1.80
2023-03-13T04:45:18.633Z,1.90
2023-03-13T04:48:16.420Z,1.92
2023-03-13T04:50:59.990Z,2.40
2023-03-13T04:53:31.621Z,2.08
2023-03-13T04:56:43.156Z,2.25
2023-03-13T04:59:22.813Z,2.00
2023-03-13T05:02:13.392Z,1.90
2023-03-13T05:04:58.602Z,1.80
2023-03-13T05:07:46.077Z,2.10
2023-03-13T05:10:34.988Z,2.22
2023-03-13T05:13:22.498Z,1.90
2023-03-13T05:15:55.909Z,1.80
2023-03-13T05:18:41.970Z,2.10
2023-03-13T05:21:28.268Z,1.92
2023-03-13T05:24:15.631Z,1.92
2023-03-13T05:27:02.911Z,2.17
2023-03-13T05:29:50.509Z,1.67
2023-03-13T05:32:37.080Z,2.00
2023-03-13T05:35:23.670Z,2.20
2023-03-13T05:38:09.376Z,1.90
2023-03-13T05:40:58.825Z,1.80
2023-03-13T05:46:32.453Z,2.15
2023-03-13T05:49:15.757Z,2.53
2023-03-13T05:52:01.549Z,2.38
2023-03-13T05:54:47.118Z,2.60
2023-03-13T05:57:33.340Z,2.63
2023-03-13T06:03:07.381Z,2.60
2023-03-13T06:05:39.154Z,2.95
2023-03-13T06:08:15.434Z,2.40
2023-03-13T06:10:42.448Z,2.85
2023-03-13T06:13:19.509Z,2.80
2023-03-13T06:15:57.843Z,2.42
2023-03-13T06:18:43.713Z,2.63
2023-03-13T06:21:10.962Z,2.60
2023-03-13T06:23:38.187Z,2.65
2023-03-13T06:26:05.640Z,2.65
2023-03-13T06:28:32.950Z,2.50
2023-03-13T06:31:05.858Z,2.53
2023-03-13T06:33:34.287Z,2.80
2023-03-13T06:36:02.815Z,2.33
2023-03-13T06:38:30.472Z,2.63
2023-03-13T06:40:57.988Z,2.28
2023-03-13T06:43:25.438Z,2.40
2023-03-13T06:45:52.406Z,2.45
2023-03-13T06:48:21.534Z,2.50
2023-03-13T06:50:49.478Z,2.53
2023-03-13T06:53:19.777Z,2.47
2023-03-13T06:55:47.407Z,2.70
2023-03-13T06:58:29.220Z,2.70
2023-03-13T07:01:05.679Z,2.70
2023-03-13T07:03:33.979Z,2.70
2023-03-13T07:06:04.524Z,2.80
2023-03-13T07:08:33.030Z,2.33
2023-03-13T07:11:04.412Z,2.67
2023-03-13T07:13:32.197Z,2.43
2023-03-13T07:16:05.496Z,2.70
2023-03-13T07:18:34.391Z,8.63
2023-03-13T07:21:07.376Z,4.60
2023-03-13T07:23:35.818Z,3.85
2023-03-13T07:26:07.457Z,3.13
2023-03-13T07:28:37.632Z,2.75
2023-03-13T07:31:08.849Z,3.08
2023-03-13T07:33:36.297Z,3.33
2023-03-13T07:36:03.739Z,4.00
2023-03-13T07:38:31.054Z,4.43
2023-03-13T07:41:05.171Z,4.20
2023-03-13T07:43:32.817Z,3.88
2023-03-13T07:46:03.857Z,4.30
2023-03-13T07:48:43.020Z,4.55
2023-03-13T07:51:25.289Z,3.80
2023-03-13T07:53:57.638Z,3.65
2023-03-13T07:56:25.083Z,3.50
2023-03-13T07:58:52.465Z,3.97
2023-03-13T08:01:30.475Z,4.97
2023-03-13T08:04:01.130Z,5.82
2023-03-13T08:06:33.886Z,6.43
2023-03-13T08:09:02.136Z,5.63
2023-03-13T08:11:29.425Z,5.80
2023-03-13T08:13:58.392Z,5.13
2023-03-13T08:16:33.974Z,5.40
2023-03-13T08:19:06.477Z,5.68
2023-03-13T08:21:36.981Z,4.93
2023-03-13T08:24:07.943Z,4.32
2023-03-13T08:26:38.397Z,4.38
2023-03-13T08:29:11.884Z,3.30
2023-03-13T08:31:44.047Z,3.70
2023-03-13T08:34:12.994Z,3.97
2023-03-13T08:36:40.831Z,3.88
2023-03-13T08:39:17.179Z,3.75
2023-03-13T08:41:44.587Z,3.30
2023-03-13T08:44:15.661Z,3.33
2023-03-13T08:46:44.012Z,2.97
2023-03-13T08:49:13.208Z,2.70
2023-03-13T08:51:40.801Z,2.38
2023-03-13T08:54:08.246Z,2.60
2023-03-13T08:56:35.387Z,2.20
2023-03-13T08:59:05.393Z,2.10
2023-03-13T09:01:35.954Z,1.85
2023-03-13T09:04:04.877Z,1.80
2023-03-13T09:06:38.000Z,2.00
2023-03-13T09:09:06.964Z,2.00
2023-03-13T09:11:34.498Z,2.20
2023-03-13T09:14:01.762Z,2.08
2023-03-13T09:16:32.345Z,2.00
2023-03-13T09:19:00.403Z,2.00
2023-03-13T09:21:34.979Z,2.05
2023-03-13T09:24:02.863Z,2.22
2023-03-13T09:26:30.601Z,2.08
2023-03-13T09:28:58.306Z,2.20
2023-03-13T09:31:33.932Z,2.60
2023-03-13T09:34:01.901Z,2.15
2023-03-13T09:36:29.289Z,2.20
2023-03-13T09:38:59.485Z,2.25
2023-03-13T09:41:43.135Z,2.28
2023-03-13T09:44:23.195Z,2.20
2023-03-13T09:46:53.775Z,2.20
2023-03-13T09:49:37.960Z,2.58
2023-03-13T09:52:18.088Z,2.50
2023-03-13T09:55:17.688Z,2.05
2023-03-13T09:58:10.902Z,1.75
2023-03-13T10:00:41.793Z,1.70
2023-03-13T10:03:17.336Z,1.80
2023-03-13T10:05:51.848Z,1.50
2023-03-13T10:08:26.596Z,1.35
2023-03-13T10:11:37.996Z,1.55
2023-03-13T10:14:31.248Z,1.48
2023-03-13T10:17:37.824Z,1.50
2023-03-13T10:20:25.530Z,1.52
2023-03-13T10:23:20.208Z,1.50
2023-03-13T10:25:47.849Z,1.30
2023-03-13T10:28:20.189Z,1.42
2023-03-13T10:30:54.505Z,1.75
2023-03-13T10:33:42.461Z,1.67
2023-03-13T10:36:13.603Z,1.80
2023-03-13T10:38:51.798Z,1.88
2023-03-13T10:41:38.411Z,1.27
2023-03-13T10:44:33.220Z,1.30
2023-03-13T10:47:03.226Z,1.30
2023-03-13T10:49:32.348Z,1.30
2023-03-13T10:52:04.629Z,1.10
2023-03-13T10:54:36.442Z,1.17
2023-03-13T10:57:18.932Z,1.25
2023-03-13T10:59:54.144Z,1.55
2023-03-13T11:02:35.476Z,1.92
2023-03-13T11:05:24.283Z,1.23
2023-03-13T11:07:53.510Z,1.30
2023-03-13T11:10:29.921Z,1.48
2023-03-13T11:12:58.776Z,1.70
2023-03-13T11:15:45.059Z,1.60
2023-03-13T11:18:26.022Z,2.15
2023-03-13T11:20:54.309Z,2.03
2023-03-13T11:26:39.928Z,2.13
2023-03-13T11:29:47.589Z,1.88
2023-03-13T11:32:31.298Z,2.10
2023-03-13T11:35:17.493Z,1.63
2023-03-13T11:37:44.851Z,1.60
2023-03-13T11:40:36.807Z,1.48
2023-03-13T11:43:24.009Z,1.40
2023-03-13T11:46:36.113Z,1.70
2023-03-13T11:49:44.351Z,1.42
2023-03-13T11:52:53.179Z,1.38
2023-03-13T11:55:34.813Z,1.40
2023-03-13T11:58:10.784Z,1.90
2023-03-13T12:00:50.710Z,3.00
2023-03-13T12:03:55.840Z,2.88
2023-03-13T12:07:04.875Z,1.88
2023-03-13T12:09:46.078Z,2.20
2023-03-13T12:12:33.560Z,8.82
2023-03-13T12:15:19.515Z,8.32
2023-03-13T12:17:52.198Z,5.60
2023-03-13T12:20:44.836Z,3.92
2023-03-13T12:23:11.692Z,2.35
2023-03-13T12:26:02.537Z,2.03
2023-03-13T12:29:14.394Z,1.33
2023-03-13T12:32:07.099Z,1.60
2023-03-13T12:34:57.079Z,1.23
2023-03-13T12:37:45.224Z,1.10
2023-03-13T12:40:44.694Z,1.30
2023-03-13T12:43:23.450Z,1.10
2023-03-13T12:45:59.798Z,1.23
2023-03-13T12:49:02.793Z,1.10
2023-03-13T12:52:07.341Z,1.17
2023-03-13T12:55:26.949Z,1.20
2023-03-13T12:58:16.636Z,1.48
2023-03-13T13:00:48.541Z,1.67
2023-03-13T13:03:31.897Z,1.77
2023-03-13T13:06:13.148Z,1.65
2023-03-13T13:08:46.127Z,1.90
2023-03-13T13:11:55.132Z,1.40
2023-03-13T13:14:22.027Z,1.50
2023-03-13T13:17:28.912Z,1.10
2023-03-13T13:19:56.844Z,1.27
2023-03-13T13:22:39.261Z,1.48
2023-03-13T13:25:29.187Z,2.00
2023-03-13T13:28:11.977Z,2.00
2023-03-13T13:30:39.268Z,1.48
2023-03-13T13:33:19.117Z,0.85
2023-03-13T13:36:07.485Z,0.90
2023-03-13T13:38:40.069Z,0.90
2023-03-13T13:41:09.827Z,0.88
2023-03-13T13:43:49.475Z,1.10
2023-03-13T13:46:29.859Z,1.00
2023-03-13T13:49:13.634Z,1.00
2023-03-13T13:51:42.540Z,1.02
2023-03-13T13:54:18.647Z,1.10
2023-03-13T13:56:49.823Z,1.10
2023-03-13T13:59:30.620Z,1.00
2023-03-13T14:02:03.770Z,0.80
2023-03-13T14:05:07.250Z,0.70
2023-03-13T14:07:39.952Z,1.10
2023-03-13T14:10:39.469Z,4.03
2023-03-13T14:13:22.354Z,3.22
2023-03-13T14:15:54.081Z,3.53
2023-03-13T14:18:24.450Z,3.63
2023-03-13T14:21:14.033Z,2.58
2023-03-13T14:23:46.567Z,1.90
2023-03-13T14:26:19.573Z,1.60
2023-03-13T14:29:04.459Z,1.88
2023-03-13T14:31:36.545Z,2.30
2023-03-13T14:34:07.934Z,1.90
2023-03-13T14:36:51.768Z,2.00
2023-03-13T14:39:33.838Z,1.73
2023-03-13T14:42:13.166Z,1.50
2023-03-13T14:44:43.851Z,1.55
2023-03-13T14:47:30.635Z,1.60
2023-03-13T14:50:10.046Z,1.50
2023-03-13T14:52:39.834Z,1.50
2023-03-13T14:55:23.797Z,1.70
2023-03-13T14:58:05.108Z,1.70
2023-03-13T15:00:42.867Z,2.20
2023-03-13T15:03:16.868Z,2.10
2023-03-13T15:05:50.488Z,2.30
2023-03-13T15:08:22.115Z,2.28
2023-03-13T15:10:50.443Z,2.10
2023-03-13T15:13:24.802Z,2.25
2023-03-13T15:15:53.031Z,2.10
2023-03-13T15:18:30.133Z,2.00
2023-03-13T15:21:37.596Z,2.20
2023-03-13T15:24:15.823Z,2.20
2023-03-13T15:26:42.833Z,2.33
2023-03-13T15:29:11.574Z,2.33
2023-03-13T15:31:40.258Z,2.50
2023-03-13T15:34:13.191Z,2.35
2023-03-13T15:36:41.658Z,2.13
2023-03-13T15:39:20.336Z,2.20
2023-03-13T15:41:47.339Z,2.30
2023-03-13T15:44:14.903Z,2.22
2023-03-13T15:46:41.996Z,2.10
2023-03-13T15:49:12.947Z,2.15
2023-03-13T15:51:40.025Z,2.30
2023-03-13T15:54:07.308Z,2.00
2023-03-13T15:56:37.839Z,2.20
2023-03-13T15:59:13.753Z,2.50
2023-03-13T16:01:41.511Z,2.50
2023-03-13T16:04:10.363Z,2.45
2023-03-13T16:06:37.720Z,2.50
2023-03-13T16:09:07.550Z,2.80
2023-03-13T16:11:34.830Z,2.53
2023-03-13T16:14:02.705Z,2.72
2023-03-13T16:16:37.547Z,2.20
2023-03-13T16:19:07.193Z,2.03
2023-03-13T16:21:35.044Z,2.25
2023-03-13T16:24:02.405Z,2.13
2023-03-13T16:26:32.083Z,2.15
2023-03-13T16:28:59.497Z,3.00
2023-03-13T16:31:33.116Z,3.00
2023-03-13T16:34:00.956Z,2.65
2023-03-13T16:36:31.597Z,2.90
2023-03-13T16:39:08.962Z,3.00
2023-03-13T16:41:39.153Z,2.70
2023-03-13T16:44:06.340Z,2.90
2023-03-13T16:46:40.358Z,2.83
2023-03-13T16:49:15.007Z,2.80
2023-03-13T16:51:42.320Z,2.70
2023-03-13T16:54:12.006Z,2.88
2023-03-13T16:56:43.186Z,3.20
2023-03-13T16:59:18.205Z,2.97
2023-03-13T17:01:47.020Z,3.05
2023-03-13T17:04:14.330Z,3.05
2023-03-13T17:06:44.479Z,3.80
2023-03-13T17:09:17.803Z,3.88
2023-03-13T17:11:45.381Z,3.40
2023-03-13T17:14:15.544Z,3.58
2023-03-13T17:16:45.306Z,3.25
2023-03-13T17:19:16.896Z,3.20
2023-03-13T17:21:44.158Z,3.35
2023-03-13T17:24:11.581Z,3.30
2023-03-13T17:26:40.459Z,3.47
2023-03-13T17:29:14.351Z,4.47
2023-03-13T17:31:41.627Z,6.47
2023-03-13T17:34:09.753Z,9.60
2023-03-13T17:36:37.249Z,11.32
2023-03-13T17:39:08.692Z,14.18
2023-03-13T17:41:36.248Z,13.18
2023-03-13T17:44:04.015Z,12.55
2023-03-13T17:46:46.803Z,13.40
2023-03-13T17:50:00.441Z,11.00
2023-03-13T17:54:54.903Z,8.63
2023-03-13T17:57:22.869Z,7.75
2023-03-13T17:59:50.086Z,7.60
2023-03-13T18:02:19.155Z,7.32
2023-03-13T18:04:48.062Z,7.10
2023-03-13T18:07:26.392Z,6.78
2023-03-13T18:09:54.478Z,6.45
2023-03-13T18:12:21.484Z,6.00
2023-03-13T18:14:49.017Z,5.55
2023-03-13T18:17:21.141Z,5.63
2023-03-13T18:22:24.626Z,5.72
2023-03-13T18:24:52.085Z,5.32
2023-03-13T18:27:22.239Z,5.72
2023-03-13T18:29:49.693Z,5.10
2023-03-13T18:32:19.026Z,4.65
2023-03-13T18:34:46.559Z,4.93
2023-03-13T18:37:26.158Z,5.00
2023-03-13T18:39:55.710Z,4.97
2023-03-13T18:42:24.652Z,4.55
2023-03-13T18:44:53.762Z,4.50
2023-03-13T18:47:23.611Z,3.83
2023-03-13T18:49:51.125Z,3.88
2023-03-13T18:52:18.218Z,3.80
2023-03-13T18:54:45.761Z,3.70
2023-03-13T18:57:16.644Z,3.22
2023-03-13T18:59:45.297Z,3.53
2023-03-13T19:02:18.121Z,3.50
2023-03-13T19:04:57.709Z,3.72
2023-03-13T19:07:27.274Z,3.00
2023-03-13T19:09:54.633Z,3.17
2023-03-13T19:12:21.854Z,2.90
2023-03-13T19:14:49.005Z,2.50
2023-03-13T19:17:29.514Z,2.72
2023-03-13T19:19:59.602Z,2.40
2023-03-13T19:22:26.886Z,2.55
2023-03-13T19:24:54.184Z,2.15
2023-03-13T19:27:21.106Z,1.70
2023-03-13T19:29:48.343Z,1.92
2023-03-13T19:32:18.387Z,1.90
2023-03-13T19:34:45.745Z,2.00
2023-03-13T19:37:16.327Z,1.60
2023-03-13T19:39:43.867Z,1.90
2023-03-13T19:42:11.516Z,1.70
2023-03-13T19:44:40.305Z,1.90
2023-03-13T19:47:07.744Z,1.98
2023-03-13T19:49:35.053Z,2.17
2023-03-13T19:52:02.259Z,2.00
2023-03-13T19:54:29.543Z,2.30
2023-03-13T19:56:57.444Z,2.38
2023-03-13T19:59:31.865Z,2.40
2023-03-13T20:02:01.147Z,2.70
2023-03-13T20:04:28.554Z,2.50
2023-03-13T20:06:55.528Z,2.47
2023-03-13T20:09:23.209Z,2.55
2023-03-13T20:11:50.206Z,2.38
2023-03-13T20:14:17.477Z,2.33
2023-03-13T20:16:47.328Z,2.40
2023-03-13T20:19:15.596Z,2.60
2023-03-13T20:21:42.969Z,2.42
2023-03-13T20:24:10.819Z,2.10
2023-03-13T20:26:38.019Z,2.30
2023-03-13T20:29:05.267Z,2.20
2023-03-13T20:31:32.917Z,2.70
2023-03-13T20:34:00.393Z,2.13
2023-03-13T20:36:30.334Z,2.30
2023-03-13T20:38:57.570Z,2.60
2023-03-13T20:41:30.848Z,8.85
2023-03-13T20:43:58.087Z,18.35
2023-03-13T20:46:25.290Z,5.90
2023-03-13T20:48:52.775Z,56.70
2023-03-13T20:51:19.788Z,16.73
2023-03-13T20:53:46.945Z,59.17
2023-03-13T20:56:13.978Z,19.63
2023-03-13T20:58:41.377Z,12.43
2023-03-13T21:01:08.796Z,10.88
2023-03-13T21:03:36.745Z,10.20
2023-03-13T21:06:16.792Z,8.48
2023-03-13T21:08:46.607Z,8.48
2023-03-13T21:11:21.253Z,8.15
2023-03-13T21:13:49.579Z,8.05
2023-03-13T21:16:18.403Z,7.18
2023-03-13T21:18:47.123Z,7.18
2023-03-13T21:21:18.691Z,7.03
2023-03-13T21:23:47.133Z,6.90
2023-03-13T21:26:14.858Z,6.85
2023-03-13T21:28:42.412Z,6.35
2023-03-13T21:31:16.116Z,6.78
2023-03-13T21:33:45.665Z,6.15
2023-03-13T21:36:15.892Z,6.28
2023-03-13T21:38:43.959Z,6.07
2023-03-13T21:41:15.135Z,6.53
2023-03-13T21:43:43.555Z,6.55
2023-03-13T21:46:16.516Z,5.45
2023-03-13T21:51:17.689Z,6.72
2023-03-13T21:53:44.905Z,6.35
2023-03-13T21:56:16.600Z,6.10
2023-03-13T21:58:47.881Z,6.75
2023-03-13T22:01:16.241Z,6.85
2023-03-13T22:03:43.738Z,7.90
2023-03-13T22:06:20.003Z,8.77
2023-03-13T22:08:49.704Z,9.20
2023-03-13T22:11:17.605Z,9.25
2023-03-13T22:13:44.980Z,8.75
2023-03-13T22:16:12.228Z,9.52
2023-03-13T22:18:41.821Z,8.90
2023-03-13T22:21:08.949Z,9.07
2023-03-13T22:23:36.116Z,8.82
2023-03-13T22:26:03.372Z,9.07
2023-03-13T22:28:30.882Z,9.93
2023-03-13T22:31:01.755Z,9.80
2023-03-13T22:33:29.201Z,9.75
2023-03-13T22:35:56.257Z,9.77
2023-03-13T22:38:24.653Z,9.85
2023-03-13T22:41:03.950Z,10.00
2023-03-13T22:43:31.222Z,10.88
2023-03-13T22:45:59.457Z,11.68
2023-03-13T22:48:27.411Z,9.60
2023-03-13T22:51:03.607Z,9.52
2023-03-13T22:53:33.538Z,12.35
2023-03-13T22:56:00.675Z,10.68
2023-03-13T22:58:28.310Z,12.27
2023-03-13T23:00:56.597Z,12.50
2023-03-13T23:03:23.895Z,12.07
2023-03-13T23:05:50.879Z,12.40
2023-03-13T23:08:19.030Z,16.00
2023-03-13T23:10:47.606Z,13.00
2023-03-13T23:13:15.570Z,13.23
2023-03-13T23:15:58.220Z,15.20
2023-03-13T23:18:27.713Z,15.48
2023-03-13T23:20:55.257Z,14.35
2023-03-13T23:23:22.610Z,14.23
2023-03-13T23:25:49.836Z,13.65
2023-03-13T23:28:17.176Z,13.52
2023-03-13T23:30:44.080Z,17.95
2023-03-13T23:33:11.331Z,30.08
2023-03-13T23:35:38.314Z,13.77
2023-03-13T23:38:05.600Z,13.70
2023-03-13T23:40:32.730Z,12.98
2023-03-13T23:43:00.174Z,12.52
2023-03-13T23:45:27.299Z,11.90
2023-03-13T23:47:55.192Z,15.40
2023-03-13T23:50:23.904Z,13.27
2023-03-13T23:52:51.138Z,12.25
2023-03-13T23:55:18.193Z,12.70
2023-03-13T23:57:50.423Z,12.75
